Time;durP1;ratioP1;P1;durP2;ratioP2;P2;SDS_P1;SDS_P2;PMS_P1;PMS_P2;Temp;Humidity;BMP_temperature;BMP_pressure;BME280_temperature;BME280_humidity;BME280_pressure;Samples;Min_cycle;Max_cycle;Signal;HPM_P1;HPM_P2
2021/08/24 00:00:29;;;;;;;11.13;8.02;;;;;;;15.18;96.99;99208.44;5005059;28;20026;-64
2021/08/24 00:02:55;;;;;;;11.30;7.55;;;;;;;15.13;97.02;99204.19;5004863;28;20109;-64
2021/08/24 00:05:28;;;;;;;10.02;7.82;;;;;;;15.05;97.38;99198.22;5004931;28;20061;-64
2021/08/24 00:07:56;;;;;;;9.38;6.88;;;;;;;14.86;97.25;99203.19;5004855;28;20018;-64
2021/08/24 00:10:27;;;;;;;12.20;7.93;;;;;;;14.81;97.36;99197.13;5005124;28;20076;-64
2021/08/24 00:12:53;;;;;;;17.13;8.18;;;;;;;14.75;98.05;99196.44;5005022;28;20037;-64
2021/08/24 00:15:19;;;;;;;13.60;9.00;;;;;;;14.64;98.49;99194.06;5004679;28;20026;-64
2021/08/24 00:17:45;;;;;;;17.55;8.18;;;;;;;14.61;98.68;99198.56;5004908;28;20294;-64
2021/08/24 00:20:11;;;;;;;13.73;8.30;;;;;;;14.62;98.85;99193.22;5004848;28;20026;-64
2021/08/24 00:22:39;;;;;;;14.18;8.23;;;;;;;14.49;98.48;99194.47;5004783;28;20030;-64
2021/08/24 00:25:11;;;;;;;17.73;8.57;;;;;;;14.43;98.79;99199.06;5004795;28;20049;-64
2021/08/24 00:27:36;;;;;;;17.02;8.43;;;;;;;14.31;98.84;99191.41;5004844;28;20030;-64
2021/08/24 00:30:03;;;;;;;13.85;7.85;;;;;;;14.28;98.90;99204.75;5004681;28;20245;-64
2021/08/24 00:32:29;;;;;;;17.02;7.68;;;;;;;14.27;99.12;99193.25;5004672;28;20218;-64
2021/08/24 00:34:56;;;;;;;18.40;8.38;;;;;;;14.26;98.88;99202.13;5004873;28;20026;-64
2021/08/24 00:37:21;;;;;;;12.25;7.88;;;;;;;14.24;98.64;99197.78;5004587;28;20022;-64
2021/08/24 00:39:48;;;;;;;14.43;7.68;;;;;;;14.08;98.54;99201.69;5004412;28;20029;-64
2021/08/24 00:42:15;;;;;;;15.80;7.57;;;;;;;14.03;98.96;99208.84;5004542;28;20022;-64
2021/08/24 00:44:42;;;;;;;12.18;8.05;;;;;;;14.00;99.04;99207.16;5004530;28;20030;-64
2021/08/24 00:47:13;;;;;;;17.08;8.05;;;;;;;13.91;98.85;99209.13;5004553;28;20037;-64
2021/08/24 00:49:38;;;;;;;14.23;7.70;;;;;;;13.79;98.58;99209.44;5004619;28;20058;-64
2021/08/24 00:52:33;;;;;;;12.27;7.13;;;;;;;13.70;98.59;99209.66;5004496;28;20256;-64
2021/08/24 00:54:58;;;;;;;21.52;7.50;;;;;;;13.59;98.58;99212.53;5004207;28;20225;-64
2021/08/24 00:57:25;;;;;;;12.90;7.68;;;;;;;13.54;98.65;99210.91;5004490;28;20022;-64
2021/08/24 00:59:52;;;;;;;13.50;7.80;;;;;;;13.51;99.17;99211.81;5004259;28;20084;-64
2021/08/24 01:02:20;;;;;;;13.70;8.27;;;;;;;13.49;99.60;99218.06;5004434;28;20037;-64
2021/08/24 01:04:50;;;;;;;12.25;7.20;;;;;;;13.43;99.03;99215.53;5004291;28;20046;-64
2021/08/24 01:07:31;;;;;;;15.98;7.70;;;;;;;13.32;98.75;99214.91;5004597;28;20022;-64
2021/08/24 01:10:08;;;;;;;13.75;6.78;;;;;;;13.41;99.06;99212.06;5004351;28;20329;-64
2021/08/24 01:12:47;;;;;;;11.32;8.32;;;;;;;13.44;99.24;99210.22;5004296;28;20030;-64
2021/08/24 01:15:22;;;;;;;19.70;8.15;;;;;;;13.28;99.08;99210.56;5004420;28;20248;-64
2021/08/24 01:17:53;;;;;;;10.48;7.03;;;;;;;13.22;99.10;99216.00;5004307;28;20025;-64
2021/08/24 01:20:30;;;;;;;14.32;7.75;;;;;;;13.10;99.07;99197.75;5004162;28;20033;-64
2021/08/24 01:22:55;;;;;;;13.25;7.40;;;;;;;13.17;99.45;99208.16;5004147;28;20038;-64
2021/08/24 01:25:29;;;;;;;11.82;7.30;;;;;;;13.11;99.04;99202.13;5003991;28;20025;-64
2021/08/24 01:28:03;;;;;;;16.92;7.65;;;;;;;12.97;99.04;99211.16;5006062;28;20030;-64
2021/08/24 01:30:40;;;;;;;11.15;5.80;;;;;;;13.11;99.20;99208.28;5007996;28;20074;-64
2021/08/24 01:33:15;;;;;;;11.18;7.10;;;;;;;12.98;98.89;99198.84;5007751;28;20029;-64
2021/08/24 01:35:59;;;;;;;9.57;6.97;;;;;;;12.98;99.16;99212.03;5008171;28;20034;-64
2021/08/24 01:38:28;;;;;;;43.42;7.55;;;;;;;12.94;99.07;99199.78;5007929;28;20050;-64
2021/08/24 01:41:22;;;;;;;66.63;7.07;;;;;;;12.88;99.50;99200.78;5007695;28;20022;-64
2021/08/24 01:44:03;;;;;;;16.25;5.90;;;;;;;12.89;99.68;99205.19;5011310;28;20046;-64
2021/08/24 01:46:56;;;;;;;15.13;6.32;;;;;;;12.92;99.91;99202.44;5007721;28;20022;-64
2021/08/24 01:49:31;;;;;;;17.52;6.55;;;;;;;12.85;99.85;99202.63;5007626;28;20026;-64
2021/08/24 01:52:02;;;;;;;33.38;6.72;;;;;;;12.82;100.00;99203.53;5007830;28;20033;-64
2021/08/24 01:54:35;;;;;;;33.28;6.22;;;;;;;12.75;100.00;99201.91;5007544;28;20313;-64
2021/08/24 01:57:02;;;;;;;96.45;9.38;;;;;;;12.62;99.79;99196.88;5007498;28;20030;-64
2021/08/24 01:59:36;;;;;;;59.72;7.85;;;;;;;12.61;100.00;99200.44;5007410;28;20057;-64
2021/08/24 02:02:16;;;;;;;29.98;6.30;;;;;;;12.65;100.00;99203.00;5007391;28;20026;-64
2021/08/24 02:04:53;;;;;;;31.27;7.03;;;;;;;12.73;100.00;99206.38;5007058;28;20117;-64
2021/08/24 02:07:21;;;;;;;14.15;6.35;;;;;;;12.74;99.94;99204.59;5007353;28;20225;-64
2021/08/24 02:09:51;;;;;;;26.33;6.85;;;;;;;12.57;99.61;99210.16;5007261;28;20023;-64
2021/08/24 02:12:20;;;;;;;43.22;6.68;;;;;;;12.57;99.95;99212.81;5007241;28;20046;-64
2021/08/24 02:14:46;;;;;;;17.27;6.35;;;;;;;12.59;99.78;99213.66;5007173;28;20022;-64
2021/08/24 02:17:15;;;;;;;57.67;6.10;;;;;;;12.46;99.53;99212.16;5007140;28;20061;-64
2021/08/24 02:19:49;;;;;;;9.77;5.78;;;;;;;12.44;99.88;99203.38;5006983;28;20026;-64
2021/08/24 02:22:34;;;;;;;18.90;5.70;;;;;;;12.46;100.00;99206.88;5007046;28;20124;-64
2021/08/24 02:25:13;;;;;;;23.08;5.25;;;;;;;12.44;99.50;99206.00;5005856;28;20040;-64
2021/08/24 02:27:47;;;;;;;17.25;5.20;;;;;;;12.38;99.65;99197.34;5006754;28;20069;-64
2021/08/24 02:30:12;;;;;;;27.75;5.47;;;;;;;12.24;99.20;99202.84;5006872;28;20022;-64
2021/08/24 02:32:44;;;;;;;14.32;4.95;;;;;;;12.17;99.22;99200.34;5006879;28;20290;-64
2021/08/24 02:35:34;;;;;;;21.48;5.00;;;;;;;12.05;99.13;99197.88;5006837;28;20053;-64
2021/08/24 02:38:17;;;;;;;13.73;4.93;;;;;;;12.10;99.09;99202.22;5006393;28;20022;-64
2021/08/24 02:40:55;;;;;;;7.57;4.80;;;;;;;12.13;99.06;99196.91;5006535;28;20030;-64
2021/08/24 02:43:36;;;;;;;14.00;5.20;;;;;;;11.99;98.89;99203.28;5006720;28;20268;-64
2021/08/24 02:46:32;;;;;;;6.60;4.65;;;;;;;11.96;99.17;99204.19;5006586;28;20217;-64
2021/08/24 02:49:03;;;;;;;10.68;4.40;;;;;;;11.92;98.83;99202.50;5006089;28;20093;-64
2021/08/24 02:51:30;;;;;;;8.68;3.83;;;;;;;11.83;98.95;99202.63;5006502;28;20018;-64
2021/08/24 02:54:15;;;;;;;9.80;4.30;;;;;;;11.85;99.04;99199.97;5006877;28;20241;-64
2021/08/24 02:56:41;;;;;;;10.13;3.90;;;;;;;11.87;99.04;99195.56;5006688;28;20028;-64
2021/08/24 02:59:07;;;;;;;11.38;4.05;;;;;;;11.84;99.21;99203.53;5006236;28;20057;-64
2021/08/24 03:01:32;;;;;;;12.57;4.20;;;;;;;11.89;99.37;99207.81;5006221;28;20026;-64
2021/08/24 03:03:58;;;;;;;35.13;4.85;;;;;;;11.86;99.29;99207.00;5006025;28;20050;-64
2021/08/24 03:06:24;;;;;;;11.77;4.80;;;;;;;11.75;99.10;99204.53;5006217;28;20026;-64
2021/08/24 03:08:50;;;;;;;19.88;5.20;;;;;;;11.73;99.43;99201.03;5006262;28;20026;-64
2021/08/24 03:11:20;;;;;;;31.65;4.35;;;;;;;11.68;99.23;99208.13;5005926;28;20225;-64
2021/08/24 03:13:56;;;;;;;98.28;5.90;;;;;;;11.59;99.48;99208.25;5006136;28;20076;-64
2021/08/24 03:16:49;;;;;;;39.58;4.35;;;;;;;11.54;99.75;99210.06;5006085;28;20018;-64
2021/08/24 03:19:20;;;;;;;9.20;4.05;;;;;;;11.59;99.26;99213.53;5006057;28;20029;-64
2021/08/24 03:21:47;;;;;;;24.58;3.30;;;;;;;11.55;98.92;99209.19;5006153;28;20023;-64
2021/08/24 03:24:15;;;;;;;27.67;4.03;;;;;;;11.48;98.87;99215.44;5005854;28;20029;-64
2021/08/24 03:26:43;;;;;;;15.93;3.78;;;;;;;11.49;98.58;99209.28;5005857;28;20022;-64
2021/08/24 03:29:11;;;;;;;11.65;3.95;;;;;;;11.41;99.03;99207.63;5005586;28;20190;-64
2021/08/24 03:31:38;;;;;;;6.20;3.83;;;;;;;11.35;99.13;99213.84;5005573;28;20014;-64
2021/08/24 03:34:04;;;;;;;6.20;3.75;;;;;;;11.40;99.12;99211.16;5005673;28;20022;-64
2021/08/24 03:36:30;;;;;;;11.27;3.80;;;;;;;11.33;99.08;99210.34;5005657;28;20037;-64
2021/08/24 03:38:55;;;;;;;16.20;4.10;;;;;;;11.30;98.51;99210.44;5005618;28;20037;-64
2021/08/24 03:41:20;;;;;;;5.93;3.67;;;;;;;11.28;98.76;99212.19;5005458;28;20027;-64
2021/08/24 03:43:46;;;;;;;9.57;4.15;;;;;;;11.27;98.79;99210.47;5005519;28;20025;-64
2021/08/24 03:46:11;;;;;;;16.33;4.30;;;;;;;11.21;98.66;99215.81;5005276;28;20316;-64
2021/08/24 03:48:36;;;;;;;10.32;3.67;;;;;;;11.23;99.00;99207.88;5005390;28;20072;-64
2021/08/24 03:51:02;;;;;;;6.95;4.20;;;;;;;11.24;99.09;99205.22;5004810;28;20089;-64
2021/08/24 03:53:27;;;;;;;49.67;5.30;;;;;;;11.08;98.76;99214.22;5005567;28;20030;-64
2021/08/24 03:55:53;;;;;;;6.93;3.40;;;;;;;11.09;98.65;99221.22;5005283;28;20055;-64
2021/08/24 03:58:18;;;;;;;19.60;3.60;;;;;;;10.97;98.73;99221.38;5005275;28;20085;-64
2021/08/24 04:00:45;;;;;;;6.03;3.40;;;;;;;11.00;98.71;99226.59;5005129;28;20026;-64
2021/08/24 04:03:10;;;;;;;5.53;4.07;;;;;;;11.02;98.44;99230.94;5004849;28;20109;-64
2021/08/24 04:05:35;;;;;;;6.20;4.30;;;;;;;11.07;98.78;99233.53;5004842;28;20022;-64
2021/08/24 04:08:01;;;;;;;6.13;4.53;;;;;;;11.06;98.65;99236.19;5004949;28;20187;-64
2021/08/24 04:10:26;;;;;;;9.63;4.82;;;;;;;11.00;99.13;99231.88;5005006;28;20018;-64
2021/08/24 04:12:52;;;;;;;6.55;4.72;;;;;;;11.06;99.42;99242.34;5004948;28;20045;-64
2021/08/24 04:15:17;;;;;;;6.82;4.60;;;;;;;11.02;99.31;99240.63;5004894;28;20313;-64
2021/08/24 04:17:43;;;;;;;13.85;5.07;;;;;;;10.94;99.25;99242.47;5004349;28;20081;-64
2021/08/24 04:20:11;;;;;;;6.97;4.32;;;;;;;11.01;99.53;99244.13;5004526;28;20022;-64
2021/08/24 04:22:43;;;;;;;7.47;5.07;;;;;;;11.03;99.44;99255.53;5004783;28;20061;-64
2021/08/24 04:25:10;;;;;;;11.93;4.63;;;;;;;10.92;99.17;99254.81;5004878;28;20261;-64
2021/08/24 04:27:36;;;;;;;11.52;5.03;;;;;;;10.88;99.27;99245.16;5004765;28;20077;-64
2021/08/24 04:30:03;;;;;;;9.27;4.38;;;;;;;10.83;99.12;99244.34;5004707;28;20032;-64
2021/08/24 04:32:29;;;;;;;31.58;5.45;;;;;;;10.84;99.50;99261.91;5004705;28;20029;-64
2021/08/24 04:34:55;;;;;;;6.75;4.88;;;;;;;10.88;99.56;99250.44;5004670;28;20321;-64
2021/08/24 04:37:22;;;;;;;7.47;4.28;;;;;;;10.94;99.49;99250.38;5004657;28;20078;-64
2021/08/24 04:39:47;;;;;;;6.40;4.85;;;;;;;10.99;99.25;99256.47;5004538;28;20029;-64
2021/08/24 04:42:13;;;;;;;10.52;3.90;;;;;;;10.88;98.72;99247.78;5004658;28;20026;-64
2021/08/24 04:44:38;;;;;;;6.95;4.00;;;;;;;10.91;98.68;99253.91;5004544;28;20033;-64
2021/08/24 04:47:04;;;;;;;15.20;5.82;;;;;;;10.94;98.88;99263.53;5004539;28;20045;-64
2021/08/24 04:49:29;;;;;;;8.88;4.43;;;;;;;10.94;98.86;99263.53;5004532;28;20030;-64
2021/08/24 04:51:55;;;;;;;7.40;5.00;;;;;;;10.89;98.84;99265.38;5004499;28;20025;-64
2021/08/24 04:54:20;;;;;;;6.05;4.53;;;;;;;10.92;98.77;99260.06;5004448;28;20029;-64
2021/08/24 04:56:46;;;;;;;7.63;4.55;;;;;;;11.03;99.00;99260.81;5003618;28;20034;-64
2021/08/24 04:59:11;;;;;;;8.43;4.95;;;;;;;11.03;99.18;99268.72;5004471;28;20212;-64
2021/08/24 05:01:36;;;;;;;10.50;5.35;;;;;;;11.06;99.10;99268.69;5004381;28;20033;-64
2021/08/24 05:04:02;;;;;;;9.25;4.85;;;;;;;11.11;99.08;99272.16;5008012;28;20113;-64
2021/08/24 05:06:28;;;;;;;7.65;5.13;;;;;;;11.19;99.25;99269.41;5008483;28;20244;-64
2021/08/24 05:08:53;;;;;;;9.43;4.93;;;;;;;11.16;98.90;99270.31;5008389;28;20232;-64
2021/08/24 05:11:18;;;;;;;8.65;4.90;;;;;;;11.27;98.72;99272.81;5008343;28;20077;-64
2021/08/24 05:13:44;;;;;;;6.18;4.38;;;;;;;11.32;98.69;99271.88;5008607;28;20052;-64
2021/08/24 05:16:10;;;;;;;5.53;4.03;;;;;;;11.57;98.68;99270.69;5008257;28;20049;-64
2021/08/24 05:18:37;;;;;;;5.35;3.78;;;;;;;11.72;97.69;99267.88;5008258;28;20027;-64
2021/08/24 05:21:10;;;;;;;5.78;3.22;;;;;;;12.11;96.52;99275.19;5008131;28;20372;-64
2021/08/24 05:23:36;;;;;;;5.88;3.70;;;;;;;11.87;94.61;99267.63;5008426;28;20029;-64
2021/08/24 05:26:11;;;;;;;4.75;3.28;;;;;;;11.97;95.21;99274.56;5008067;28;20217;-64
2021/08/24 05:28:37;;;;;;;5.47;3.60;;;;;;;12.49;94.40;99279.84;5008026;28;20317;-64
2021/08/24 05:31:02;;;;;;;5.00;3.33;;;;;;;12.81;93.38;99275.78;5007992;28;20018;-64
2021/08/24 05:33:28;;;;;;;4.93;3.30;;;;;;;13.14;92.52;99265.50;5007947;28;20065;-64
2021/08/24 05:35:53;;;;;;;5.93;3.22;;;;;;;13.59;91.46;99276.00;5008162;28;20096;-64
2021/08/24 05:38:18;;;;;;;5.13;3.85;;;;;;;13.89;89.63;99269.19;5007894;28;20022;-64
2021/08/24 05:40:44;;;;;;;7.15;3.20;;;;;;;14.18;88.88;99275.53;5006621;28;20073;-64
2021/08/24 05:43:09;;;;;;;4.65;3.20;;;;;;;14.60;86.89;99276.31;5007763;28;20340;-64
2021/08/24 05:45:35;;;;;;;6.55;2.65;;;;;;;14.86;85.29;99281.81;5006576;28;20053;-64
2021/08/24 05:48:00;;;;;;;7.63;2.47;;;;;;;15.19;84.59;99278.28;5007683;28;20018;-64
2021/08/24 05:50:26;;;;;;;6.53;3.33;;;;;;;15.38;83.94;99279.53;5007653;28;20022;-64
2021/08/24 05:52:52;;;;;;;3.75;2.65;;;;;;;15.80;82.21;99283.59;5007575;28;20026;-64
2021/08/24 05:55:18;;;;;;;5.15;2.95;;;;;;;16.07;81.40;99281.88;5007557;28;20218;-64
2021/08/24 05:57:44;;;;;;;3.10;2.45;;;;;;;15.68;80.73;99289.25;5007534;28;20018;-64
2021/08/24 06:00:11;;;;;;;11.77;4.38;;;;;;;15.25;83.88;99282.53;5006237;28;20031;-64
2021/08/24 06:02:38;;;;;;;4.55;2.65;;;;;;;16.01;83.37;99282.91;5007215;28;20025;-64
2021/08/24 06:05:04;;;;;;;6.28;2.70;;;;;;;16.63;80.36;99279.16;5007386;28;20317;-64
2021/08/24 06:07:29;;;;;;;7.15;2.97;;;;;;;16.90;79.66;99294.16;5007356;28;20103;-64
2021/08/24 06:09:55;;;;;;;4.88;2.90;;;;;;;17.51;77.73;99292.03;5007300;28;20022;-64
2021/08/24 06:12:20;;;;;;;4.78;3.03;;;;;;;17.64;75.03;99282.66;5007242;28;20317;-64
2021/08/24 06:14:46;;;;;;;4.65;2.72;;;;;;;18.11;75.40;99292.38;5006736;28;20094;-64
2021/08/24 06:17:11;;;;;;;6.70;3.05;;;;;;;18.56;72.90;99286.13;5007142;28;20022;-64
2021/08/24 06:19:37;;;;;;;6.25;3.20;;;;;;;18.68;73.45;99282.06;5007051;28;20019;-64
2021/08/24 06:22:03;;;;;;;4.88;3.10;;;;;;;18.95;73.20;99283.56;5007048;28;20031;-64
2021/08/24 06:24:30;;;;;;;6.45;2.72;;;;;;;19.55;71.30;99288.94;5006994;28;20022;-64
2021/08/24 06:26:57;;;;;;;6.53;2.60;;;;;;;19.82;71.04;99286.81;5006961;28;20065;-64
2021/08/24 06:29:22;;;;;;;4.95;2.72;;;;;;;19.96;70.14;99295.91;5007157;28;20067;-64
2021/08/24 06:31:51;;;;;;;9.70;3.00;;;;;;;19.15;70.28;99295.13;5006866;28;20045;-64
2021/08/24 06:34:17;;;;;;;7.30;3.10;;;;;;;19.34;69.24;99294.38;5006810;28;20068;-64
2021/08/24 06:36:43;;;;;;;4.78;2.78;;;;;;;19.75;66.71;99296.94;5005670;28;20097;-64
2021/08/24 06:39:09;;;;;;;4.63;2.53;;;;;;;19.74;67.80;99295.16;5006904;28;20086;-64
2021/08/24 06:41:36;;;;;;;6.32;2.70;;;;;;;20.13;68.37;99298.72;5006627;28;20129;-64
2021/08/24 06:44:03;;;;;;;7.00;2.58;;;;;;;20.68;66.76;99289.75;5006623;28;20026;-64
2021/08/24 06:46:29;;;;;;;7.07;2.67;;;;;;;20.77;66.54;99297.31;5006650;28;20033;-64
2021/08/24 06:48:54;;;;;;;5.00;2.40;;;;;;;21.04;64.66;99290.59;5006555;28;20022;-64
2021/08/24 06:51:20;;;;;;;4.20;2.20;;;;;;;21.06;62.99;99287.84;5006525;28;20109;-64
2021/08/24 06:53:45;;;;;;;6.15;2.40;;;;;;;21.17;63.99;99291.72;5006523;28;20026;-64
2021/08/24 06:56:13;;;;;;;5.43;2.25;;;;;;;21.00;61.01;99289.03;5006399;28;20344;-64
2021/08/24 06:58:40;;;;;;;7.95;2.45;;;;;;;21.37;60.93;99297.84;5006382;28;20033;-64
2021/08/24 07:01:06;;;;;;;5.60;2.15;;;;;;;20.88;60.01;99289.63;5006484;28;20034;-64
2021/08/24 07:03:31;;;;;;;3.78;2.03;;;;;;;21.01;61.58;99301.47;5006171;28;20050;-64
2021/08/24 07:05:57;;;;;;;5.00;2.30;;;;;;;20.77;61.88;99291.97;5006263;28;20093;-64
2021/08/24 07:08:22;;;;;;;13.95;5.80;;;;;;;21.21;58.00;99297.78;5006256;28;20217;-64
2021/08/24 07:10:48;;;;;;;10.57;3.63;;;;;;;21.33;59.44;99298.00;5006156;28;20305;-64
2021/08/24 07:13:17;;;;;;;6.97;3.10;;;;;;;21.48;58.74;99290.13;5006234;28;20026;-64
2021/08/24 07:15:42;;;;;;;6.20;2.95;;;;;;;22.21;56.96;99295.94;5006091;28;20217;-64
2021/08/24 07:18:08;;;;;;;5.63;2.35;;;;;;;21.98;55.08;99290.97;5006038;28;20029;-64
2021/08/24 07:20:33;;;;;;;6.45;2.30;;;;;;;21.65;55.76;99299.00;5006210;28;20085;-64
2021/08/24 07:23:00;;;;;;;6.55;2.22;;;;;;;20.91;57.29;99286.78;5005927;28;20025;-64
2021/08/24 07:25:27;;;;;;;4.20;2.03;;;;;;;21.32;56.95;99295.41;5004971;28;20057;-64
2021/08/24 07:27:54;;;;;;;4.40;2.08;;;;;;;22.10;54.21;99295.66;5005876;28;20022;-64
2021/08/24 07:30:20;;;;;;;4.38;2.13;;;;;;;22.75;53.17;99284.78;5005805;28;20025;-64
2021/08/24 07:32:46;;;;;;;8.73;2.55;;;;;;;23.03;53.18;99290.25;5005827;28;20022;-64
2021/08/24 07:35:13;;;;;;;6.32;2.20;;;;;;;22.36;54.52;99293.25;5005702;28;20105;-64
2021/08/24 07:37:39;;;;;;;4.60;2.22;;;;;;;22.82;53.76;99278.09;5005636;28;20018;-64
2021/08/24 07:40:07;;;;;;;5.40;2.28;;;;;;;21.83;54.42;99286.47;5005536;28;20375;-64
2021/08/24 07:42:32;;;;;;;6.55;2.28;;;;;;;21.87;54.82;99288.00;5005555;28;20037;-64
2021/08/24 07:44:58;;;;;;;7.20;2.33;;;;;;;21.81;56.05;99285.66;5005484;28;20022;-64
2021/08/24 07:47:23;;;;;;;5.18;1.67;;;;;;;22.16;55.82;99284.59;5005437;28;20019;-64
2021/08/24 07:49:50;;;;;;;8.13;3.38;;;;;;;22.18;52.69;99283.53;5005415;28;20018;-64
2021/08/24 07:52:16;;;;;;;6.57;2.10;;;;;;;22.03;52.53;99283.53;5005387;28;20054;-64
2021/08/24 07:54:41;;;;;;;6.82;2.25;;;;;;;22.62;52.84;99283.75;5005333;28;20359;-64
2021/08/24 07:57:07;;;;;;;6.40;2.25;;;;;;;22.34;52.77;99278.19;5005295;28;20167;-64
2021/08/24 07:59:32;;;;;;;5.00;2.10;;;;;;;22.75;53.10;99279.41;5005271;28;20022;-64
2021/08/24 08:01:58;;;;;;;3.92;1.98;;;;;;;22.43;51.41;99283.06;5005151;28;20065;-64
2021/08/24 08:04:26;;;;;;;4.60;1.83;;;;;;;22.62;52.10;99281.09;5004947;28;20392;-64
2021/08/24 08:06:52;;;;;;;6.53;2.63;;;;;;;22.60;52.39;99274.94;5005127;28;20026;-64
2021/08/24 08:09:20;;;;;;;9.70;2.30;;;;;;;22.36;53.02;99284.31;5005346;28;20053;-64
2021/08/24 08:11:50;;;;;;;5.13;2.15;;;;;;;22.33;51.53;99292.53;5004996;28;20081;-64
2021/08/24 08:14:16;;;;;;;3.90;1.80;;;;;;;23.20;48.99;99277.53;5005017;28;20101;-64
2021/08/24 08:16:42;;;;;;;6.38;2.30;;;;;;;22.82;48.14;99278.09;5004927;28;20022;-65
2021/08/24 08:19:08;;;;;;;8.68;2.05;;;;;;;22.88;48.72;99285.78;5004896;28;20045;-65
2021/08/24 08:21:36;;;;;;;6.22;2.08;;;;;;;23.02;50.46;99272.41;5004809;28;20373;-65
2021/08/24 08:24:02;;;;;;;7.63;2.65;;;;;;;23.09;48.97;99284.50;5004842;28;20022;-65
2021/08/24 08:26:29;;;;;;;6.80;1.98;;;;;;;23.59;49.05;99285.03;5004849;28;20018;-65
2021/08/24 08:28:55;;;;;;;7.88;2.28;;;;;;;23.65;46.24;99283.78;5004785;28;20094;-65
2021/08/24 08:31:22;;;;;;;3.50;1.80;;;;;;;23.00;46.69;99274.34;5004742;28;20085;-65
2021/08/24 08:33:47;;;;;;;5.10;2.20;;;;;;;22.94;46.09;99285.44;5004740;28;20344;-65
2021/08/24 08:36:13;;;;;;;5.47;1.85;;;;;;;23.23;46.46;99288.13;5004459;28;20026;-65
2021/08/24 08:38:38;;;;;;;6.45;2.17;;;;;;;22.21;46.23;99287.88;5004672;28;20038;-65
2021/08/24 08:41:20;;;;;;;6.10;1.80;;;;;;;22.18;46.11;99280.03;5004514;28;20026;-65
2021/08/24 08:44:17;;;;;;;7.82;2.10;;;;;;;22.55;45.85;99285.03;5004663;28;20022;-65
2021/08/24 08:46:42;;;;;;;4.03;1.98;;;;;;;23.07;44.19;99273.00;5004214;28;20034;-65
2021/08/24 08:49:14;;;;;;;6.32;2.30;;;;;;;22.28;45.80;99274.06;5004539;28;20053;-65
2021/08/24 08:51:47;;;;;;;5.43;2.30;;;;;;;22.75;45.39;99269.53;5004569;28;20019;-65
2021/08/24 08:54:23;;;;;;;4.00;1.83;;;;;;;22.84;46.28;99262.75;5004478;28;20312;-65
2021/08/24 08:57:02;;;;;;;5.82;2.00;;;;;;;23.10;44.34;99262.94;5004789;28;20417;-65
2021/08/24 08:59:34;;;;;;;7.68;2.20;;;;;;;23.16;44.36;99275.16;5004537;28;20060;-65
2021/08/24 09:02:29;;;;;;;7.03;2.70;;;;;;;22.54;42.82;99259.19;5004285;28;20034;-65
2021/08/24 09:04:56;;;;;;;4.45;1.83;;;;;;;22.62;43.70;99259.63;5004414;28;20077;-65
2021/08/24 09:07:38;;;;;;;6.97;1.85;;;;;;;23.42;45.01;99249.41;5004320;28;20359;-65
2021/08/24 09:10:06;;;;;;;9.75;2.15;;;;;;;24.12;42.36;99253.00;5004374;28;20030;-65
2021/08/24 09:12:36;;;;;;;5.68;1.88;;;;;;;23.30;42.57;99256.41;5004291;28;20060;-65
2021/08/24 09:15:04;;;;;;;6.90;2.25;;;;;;;23.72;41.92;99256.44;5004557;28;20317;-65
2021/08/24 09:17:38;;;;;;;4.15;1.88;;;;;;;23.40;41.92;99254.88;5004502;28;20332;-65
2021/08/24 09:20:32;;;;;;;5.20;2.00;;;;;;;23.09;42.89;99263.91;5004125;28;20026;-65
2021/08/24 09:23:02;;;;;;;4.72;2.15;;;;;;;23.03;45.76;99260.69;5007872;28;20105;-65
2021/08/24 09:25:59;;;;;;;6.07;2.10;;;;;;;23.91;44.04;99259.69;5004163;28;20022;-65
2021/08/24 09:28:28;;;;;;;4.60;1.90;;;;;;;23.46;42.31;99249.13;5004209;28;20026;-65
2021/08/24 09:30:54;;;;;;;5.80;2.08;;;;;;;24.18;43.52;99241.84;5004175;28;20037;-65
2021/08/24 09:33:21;;;;;;;3.92;1.85;;;;;;;24.06;42.17;99248.00;5004128;28;20026;-65
2021/08/24 09:35:47;;;;;;;4.43;2.08;;;;;;;24.52;42.83;99254.78;5004113;28;20028;-65
2021/08/24 09:38:15;;;;;;;6.70;1.90;;;;;;;24.55;42.07;99262.69;5004377;28;20045;-65
2021/08/24 09:41:15;;;;;;;5.55;1.80;;;;;;;23.70;45.39;99247.63;5004000;28;20033;-65
2021/08/24 09:43:41;;;;;;;4.50;2.10;;;;;;;24.37;45.82;99249.56;5004077;28;20095;-65
2021/08/24 09:46:32;;;;;;;5.32;2.40;;;;;;;24.92;39.49;99245.84;5004044;28;20356;-65
2021/08/24 09:49:01;;;;;;;4.47;2.13;;;;;;;23.82;42.32;99249.50;5005334;28;20154;-65
2021/08/24 09:51:32;;;;;;;4.18;1.67;;;;;;;24.36;43.49;99251.38;5007622;28;20018;-65
2021/08/24 09:54:00;;;;;;;4.60;2.10;;;;;;;24.35;45.53;99246.97;5007648;28;20026;-65
2021/08/24 09:56:31;;;;;;;3.50;1.67;;;;;;;24.28;44.93;99234.91;5007553;28;20022;-65
2021/08/24 09:58:58;;;;;;;7.00;2.08;;;;;;;24.56;45.58;99232.13;5007552;28;20037;-65
2021/08/24 10:01:23;;;;;;;6.43;2.20;;;;;;;23.63;44.17;99248.94;5007381;28;20260;-65
2021/08/24 10:04:09;;;;;;;7.95;2.33;;;;;;;23.92;44.39;99247.97;5007244;28;20046;-65
2021/08/24 10:06:39;;;;;;;4.53;2.25;;;;;;;24.17;43.77;99250.84;5007181;28;20329;-65
2021/08/24 10:09:15;;;;;;;4.22;1.98;;;;;;;24.65;40.45;99246.81;5007349;28;20265;-65
2021/08/24 10:11:41;;;;;;;8.13;2.38;;;;;;;23.27;43.98;99245.84;5007334;28;20073;-65
2021/08/24 10:14:15;;;;;;;5.75;2.08;;;;;;;24.49;43.66;99241.53;5007198;28;20093;-65
2021/08/24 10:16:43;;;;;;;3.45;1.90;;;;;;;24.95;44.02;99239.38;5007234;28;20034;-65
2021/08/24 10:19:24;;;;;;;4.75;2.00;;;;;;;24.64;44.26;99239.69;5007154;28;20050;-65
2021/08/24 10:21:58;;;;;;;5.13;2.35;;;;;;;24.28;40.12;99251.03;5007151;28;20257;-65
2021/08/24 10:24:35;;;;;;;6.50;2.42;;;;;;;23.44;43.52;99229.53;5007071;28;20030;-65
2021/08/24 10:27:20;;;;;;;6.72;2.35;;;;;;;24.25;41.93;99237.78;5007016;28;20030;-65
2021/08/24 10:29:52;;;;;;;6.68;1.95;;;;;;;24.19;44.22;99240.88;5006983;28;20221;-65
2021/08/24 10:32:26;;;;;;;5.75;2.45;;;;;;;24.00;43.41;99243.00;5006994;28;20376;-65
2021/08/24 10:34:52;;;;;;;5.80;2.55;;;;;;;24.36;42.97;99234.41;5006922;28;20252;-65
2021/08/24 10:37:23;;;;;;;5.05;2.03;;;;;;;25.16;41.68;99237.91;5006833;28;20064;-65
2021/08/24 10:40:09;;;;;;;5.60;2.45;;;;;;;24.22;43.67;99240.66;5006792;28;20037;-65
2021/08/24 10:42:37;;;;;;;5.28;2.30;;;;;;;24.61;42.13;99229.09;5006017;28;20037;-65
2021/08/24 10:45:25;;;;;;;3.72;2.28;;;;;;;24.33;43.13;99234.59;5006681;28;20130;-65
2021/08/24 10:47:59;;;;;;;5.90;2.33;;;;;;;24.30;43.28;99232.94;5006726;28;20022;-65
2021/08/24 10:50:42;;;;;;;4.57;2.20;;;;;;;24.71;39.75;99231.09;5006970;28;20019;-65
2021/08/24 10:53:32;;;;;;;9.55;2.17;;;;;;;24.27;41.59;99235.84;5006553;28;20089;-65
2021/08/24 10:56:16;;;;;;;4.53;2.25;;;;;;;23.78;42.73;99221.09;5006451;28;20050;-65
2021/08/24 10:58:51;;;;;;;5.20;2.20;;;;;;;23.87;42.48;99230.41;5006421;28;20026;-65
2021/08/24 11:01:30;;;;;;;7.05;2.50;;;;;;;23.78;40.58;99231.84;5006296;28;20026;-65
2021/08/24 11:04:22;;;;;;;5.10;2.05;;;;;;;24.00;41.83;99221.50;5006124;28;20066;-65
2021/08/24 11:07:19;;;;;;;6.53;2.20;;;;;;;24.01;43.00;99225.91;5006004;28;20088;-65
2021/08/24 11:09:53;;;;;;;5.57;2.20;;;;;;;23.89;44.19;99229.34;5005089;28;20034;-65
2021/08/24 11:12:37;;;;;;;5.68;2.17;;;;;;;23.99;43.75;99218.91;5006226;28;20014;-65
2021/08/24 11:15:24;;;;;;;5.72;2.25;;;;;;;24.19;42.39;99227.41;5006132;28;20365;-65
2021/08/24 11:18:05;;;;;;;7.03;2.47;;;;;;;24.31;44.72;99226.63;5006103;28;20325;-65
2021/08/24 11:20:58;;;;;;;7.88;2.20;;;;;;;24.13;43.57;99226.94;5005986;28;20115;-65
2021/08/24 11:23:49;;;;;;;4.80;2.17;;;;;;;23.22;44.61;99219.22;5006018;28;20025;-65
2021/08/24 11:26:46;;;;;;;5.45;2.42;;;;;;;23.74;45.05;99230.34;5005902;28;20026;-65
2021/08/24 11:29:26;;;;;;;6.32;2.05;;;;;;;23.55;42.50;99224.38;5006154;28;20026;-65
2021/08/24 11:32:18;;;;;;;4.07;2.17;;;;;;;22.97;44.63;99218.97;5005747;28;20022;-65
2021/08/24 11:35:04;;;;;;;5.75;2.72;;;;;;;23.54;45.42;99211.88;5005782;28;20029;-65
2021/08/24 11:37:53;;;;;;;5.85;2.17;;;;;;;23.54;48.60;99216.41;5005698;28;20053;-65
2021/08/24 11:40:29;;;;;;;6.03;2.70;;;;;;;23.24;43.88;99213.78;5005663;28;20034;-65
2021/08/24 11:42:58;;;;;;;5.38;2.10;;;;;;;23.05;45.84;99208.66;5005611;28;20018;-65
2021/08/24 11:45:48;;;;;;;4.80;1.98;;;;;;;22.73;45.72;99212.41;5005574;28;20022;-65
2021/08/24 11:48:28;;;;;;;7.60;2.75;;;;;;;22.65;47.76;99211.13;5005442;28;20089;-65